Time;durP1;ratioP1;P1;durP2;ratioP2;P2;SDS_P1;SDS_P2;PMS_P1;PMS_P2;Temp;Humidity;BMP_temperature;BMP_pressure;BME280_temperature;BME280_humidity;BME280_pressure;Samples;Min_cycle;Max_cycle;Signal;HPM_P1;HPM_P2
2022/08/13 00:01:18;;;;;;;1.50;1.40;;;;;;;25.02;59.15;97525.72;5093342;28;20198;-31
2022/08/13 00:03:49;;;;;;;1.33;1.30;;;;;;;25.04;59.49;97521.44;5084983;28;20191;-31
2022/08/13 00:09:14;;;;;;;1.30;1.20;;;;;;;25.04;59.16;97524.88;5093147;28;20571;-31
2022/08/13 00:14:41;;;;;;;1.33;1.30;;;;;;;25.06;59.55;97530.03;5089664;28;20278;-31
2022/08/13 00:17:13;;;;;;;1.40;1.30;;;;;;;25.04;59.56;97527.44;5093419;28;20215;-31
2022/08/13 00:19:41;;;;;;;1.40;1.30;;;;;;;25.06;59.35;97524.91;5092765;28;20192;-31
2022/08/13 00:22:08;;;;;;;1.60;1.50;;;;;;;25.05;59.19;97524.03;5087467;28;20291;-31
2022/08/13 00:24:55;;;;;;;1.33;1.30;;;;;;;25.05;59.52;97524.03;5093238;28;20572;-31
2022/08/13 00:27:22;;;;;;;1.20;1.20;;;;;;;25.06;60.17;97524.91;5091446;28;20225;-31
2022/08/13 00:29:53;;;;;;;1.30;1.30;;;;;;;25.05;59.18;97523.19;5084054;28;20262;-31
2022/08/13 00:32:29;;;;;;;1.20;1.20;;;;;;;25.05;59.59;97518.03;5092987;28;20229;-31
2022/08/13 00:34:57;;;;;;;1.23;1.20;;;;;;;25.04;59.38;97517.16;5092276;28;20221;-31
2022/08/13 00:37:27;;;;;;;1.30;1.30;;;;;;;25.05;59.30;97515.47;5084426;28;20258;-31
2022/08/13 00:39:59;;;;;;;1.20;1.20;;;;;;;25.04;59.22;97516.28;5091392;28;20281;-31
2022/08/13 00:42:46;;;;;;;1.20;1.20;;;;;;;25.01;59.59;97508.53;5092451;28;20690;-31
2022/08/13 00:45:17;;;;;;;1.33;1.33;;;;;;;25.03;59.26;97509.44;5092177;28;20637;-31
2022/08/13 00:50:34;;;;;;;1.40;1.30;;;;;;;25.03;59.27;97502.59;5088055;28;20299;-32
2022/08/13 00:53:03;;;;;;;1.20;1.20;;;;;;;25.00;59.56;97493.94;5091430;28;20196;-31
2022/08/13 00:55:31;;;;;;;1.23;1.20;;;;;;;25.01;59.18;97493.97;5092209;28;20291;-31
2022/08/13 00:57:58;;;;;;;1.40;1.30;;;;;;;25.04;59.74;97491.44;5092957;28;20224;-31
2022/08/13 01:00:27;;;;;;;1.30;1.20;;;;;;;25.05;59.69;97502.59;5089891;28;20344;-31
2022/08/13 01:02:54;;;;;;;1.30;1.20;;;;;;;25.02;59.40;97487.13;5091742;28;20229;-31
2022/08/13 01:05:24;;;;;;;1.40;1.30;;;;;;;25.04;59.22;97494.03;5092251;28;20278;-31
2022/08/13 01:07:55;;;;;;;1.37;1.27;;;;;;;25.05;59.44;97492.31;5092281;28;20227;-31
2022/08/13 01:10:24;;;;;;;1.50;1.40;;;;;;;25.02;59.58;97492.28;5058756;28;20226;-31
2022/08/13 01:12:53;;;;;;;1.40;1.30;;;;;;;25.05;59.28;97497.47;5092087;28;20253;-32
2022/08/13 01:15:23;;;;;;;1.20;1.20;;;;;;;25.04;59.71;97499.16;5093885;28;20227;-31
2022/08/13 01:17:53;;;;;;;1.17;1.17;;;;;;;25.01;59.67;97495.66;5096097;28;20626;-30
2022/08/13 01:20:23;;;;;;;1.43;1.33;;;;;;;24.99;59.71;97490.50;5094588;28;20678;-31
2022/08/13 01:23:00;;;;;;;1.23;1.23;;;;;;;25.03;59.42;97496.56;5079459;28;20202;-31
2022/08/13 01:25:27;;;;;;;1.23;1.13;;;;;;;25.02;59.66;97495.69;5095476;28;20199;-31
2022/08/13 01:27:55;;;;;;;1.23;1.23;;;;;;;25.02;59.55;97490.56;5095797;28;20224;-31
2022/08/13 01:30:22;;;;;;;1.20;1.20;;;;;;;25.00;59.25;97484.53;5095546;28;20277;-31
2022/08/13 01:32:49;;;;;;;1.33;1.27;;;;;;;25.02;59.28;97492.28;5095055;28;20199;-31
2022/08/13 01:35:23;;;;;;;1.30;1.20;;;;;;;25.04;59.48;97488.00;5092836;28;20207;-31
2022/08/13 01:37:53;;;;;;;1.13;1.13;;;;;;;25.02;59.37;97494.84;5096132;28;20251;-31
2022/08/13 01:40:24;;;;;;;1.30;1.20;;;;;;;25.03;59.57;97492.31;5088556;28;20571;-31
2022/08/13 01:42:51;;;;;;;1.20;1.20;;;;;;;25.04;59.62;97490.56;5095690;28;20203;-31
2022/08/13 01:45:21;;;;;;;1.30;1.20;;;;;;;25.05;59.42;97489.75;5095130;28;20231;-31
2022/08/13 01:50:41;;;;;;;1.50;1.40;;;;;;;25.04;59.24;97494.03;5092346;28;20640;-31
2022/08/13 01:53:11;;;;;;;1.10;1.10;;;;;;;24.99;59.25;97480.22;5095459;28;20200;-31
2022/08/13 01:55:41;;;;;;;1.17;1.17;;;;;;;25.04;59.61;97490.56;5091574;28;20238;-31
2022/08/13 01:58:29;;;;;;;1.30;1.20;;;;;;;25.03;59.72;97484.59;5095428;28;20230;-31
2022/08/13 02:01:01;;;;;;;1.20;1.20;;;;;;;25.04;59.78;97485.44;5094935;28;20214;-30
2022/08/13 02:03:34;;;;;;;1.17;1.17;;;;;;;25.04;59.63;97482.84;5095346;28;20199;-31
2022/08/13 02:06:00;;;;;;;1.23;1.20;;;;;;;25.03;59.85;97479.44;5090333;28;20278;-31
2022/08/13 02:08:50;;;;;;;1.10;1.10;;;;;;;25.01;59.54;97475.09;5095128;28;20602;-31
2022/08/13 02:11:17;;;;;;;1.23;1.23;;;;;;;24.95;59.50;97464.72;5095038;28;20257;-31
2022/08/13 02:13:52;;;;;;;1.00;1.00;;;;;;;25.03;59.44;97476.00;5094122;28;20570;-31
2022/08/13 02:16:20;;;;;;;1.17;1.17;;;;;;;25.02;59.37;97471.72;5093561;28;20666;-31
2022/08/13 02:18:52;;;;;;;1.10;1.10;;;;;;;25.01;59.38;97468.25;5089140;28;20238;-31
2022/08/13 02:21:20;;;;;;;1.10;1.10;;;;;;;25.00;59.38;97463.09;5092470;28;20234;-31
2022/08/13 02:23:58;;;;;;;1.40;1.30;;;;;;;25.03;59.46;97476.00;5093629;28;20203;-31
2022/08/13 02:26:28;;;;;;;1.20;1.20;;;;;;;25.02;59.70;97474.28;5095054;28;20232;-31
2022/08/13 02:28:57;;;;;;;1.10;1.10;;;;;;;25.01;59.87;97475.09;5090126;28;20603;-31
2022/08/13 02:31:26;;;;;;;1.50;1.40;;;;;;;25.03;59.31;97473.44;5094330;28;20267;-31
2022/08/13 02:34:12;;;;;;;1.10;1.10;;;;;;;25.00;59.34;97463.09;5095061;28;20559;-31
2022/08/13 02:36:42;;;;;;;1.67;1.47;;;;;;;24.98;59.30;97457.94;5094362;28;20200;-31
2022/08/13 02:39:12;;;;;;;1.10;1.10;;;;;;;25.03;59.78;97466.59;5092774;28;20206;-31
2022/08/13 02:41:42;;;;;;;1.20;1.20;;;;;;;25.03;59.31;97463.13;5094191;28;20220;-30
2022/08/13 02:44:19;;;;;;;1.10;1.10;;;;;;;25.04;59.59;97462.28;5083822;28;20777;-31
2022/08/13 02:47:01;;;;;;;1.20;1.20;;;;;;;25.04;59.56;97470.88;5091763;28;20296;-31
2022/08/13 02:49:28;;;;;;;1.30;1.30;;;;;;;25.01;59.42;97468.25;5094258;28;20207;-31
2022/08/13 02:52:10;;;;;;;1.30;1.30;;;;;;;25.03;59.56;97474.31;5093879;28;20367;-31
2022/08/13 02:54:39;;;;;;;1.20;1.20;;;;;;;25.02;59.64;97477.69;5094617;28;20226;-31
2022/08/13 02:57:21;;;;;;;1.03;1.03;;;;;;;25.00;59.87;97474.25;5088627;28;20219;-31
2022/08/13 02:59:49;;;;;;;1.00;1.00;;;;;;;24.93;59.79;97451.84;5089805;28;20195;-31
2022/08/13 03:02:37;;;;;;;1.20;1.20;;;;;;;25.02;59.37;97469.97;5093072;28;20199;-31
2022/08/13 03:05:07;;;;;;;1.33;1.30;;;;;;;25.01;59.65;97470.84;5092875;28;20286;-31
2022/08/13 03:07:38;;;;;;;1.07;1.07;;;;;;;25.01;59.70;97463.13;5110467;22;20198;-21
2022/08/13 03:10:21;;;;;;;1.30;1.20;;;;;;;25.02;59.80;97469.97;5088193;28;20745;-21
2022/08/13 03:13:16;;;;;;;1.50;1.40;;;;;;;25.03;59.44;97463.13;5083375;28;20195;-22
2022/08/13 03:15:49;;;;;;;1.00;1.00;;;;;;;24.94;59.63;97448.44;5091305;28;20211;-23
2022/08/13 03:18:27;;;;;;;1.40;1.30;;;;;;;25.01;59.70;97455.41;5067581;28;20224;-21
2022/08/13 03:21:22;;;;;;;1.10;1.10;;;;;;;25.03;59.43;97464.00;5089713;28;20191;-20
2022/08/13 03:24:12;;;;;;;1.10;1.10;;;;;;;25.02;59.73;97457.13;5092030;28;20196;-21
2022/08/13 03:26:48;;;;;;;1.27;1.20;;;;;;;25.03;59.25;97464.00;5091498;28;20373;-22
2022/08/13 03:29:20;;;;;;;1.00;1.00;;;;;;;25.03;59.54;97458.88;5091893;28;20215;-21
2022/08/13 03:32:07;;;;;;;1.20;1.20;;;;;;;25.03;59.94;97447.72;5097851;28;20196;-21
2022/08/13 03:34:34;;;;;;;1.20;1.20;;;;;;;25.02;59.45;97441.69;5094430;28;20239;-22
2022/08/13 03:37:01;;;;;;;1.10;1.10;;;;;;;25.02;59.71;97453.72;5098334;28;20199;-20
2022/08/13 03:39:29;;;;;;;1.50;1.40;;;;;;;25.02;59.86;97440.84;5102824;28;20757;-21
2022/08/13 03:41:59;;;;;;;1.17;1.17;;;;;;;25.01;59.82;97447.69;5100185;28;20203;-21
2022/08/13 03:44:26;;;;;;;1.20;1.20;;;;;;;25.02;59.40;97451.13;5103701;28;20763;-21
2022/08/13 03:46:54;;;;;;;1.27;1.27;;;;;;;25.00;59.35;97448.53;5101124;28;20203;-21
2022/08/13 03:49:22;;;;;;;1.20;1.20;;;;;;;25.01;59.90;97451.97;5103471;28;20219;-21
2022/08/13 03:51:55;;;;;;;1.40;1.30;;;;;;;25.01;59.73;97444.25;5089823;28;20226;-21
2022/08/13 03:54:22;;;;;;;1.10;1.10;;;;;;;25.01;60.03;97451.97;5090769;28;20671;-23
2022/08/13 03:56:52;;;;;;;1.30;1.30;;;;;;;25.02;59.78;97448.56;5099514;28;20640;-21
2022/08/13 03:59:28;;;;;;;1.30;1.30;;;;;;;25.01;59.67;97450.25;5091625;28;20222;-21
2022/08/13 04:02:13;;;;;;;1.30;1.20;;;;;;;25.01;59.45;97444.25;5088719;28;20684;-21
2022/08/13 04:04:47;;;;;;;1.20;1.20;;;;;;;25.01;59.73;97450.25;5102426;28;20201;-21
2022/08/13 04:07:16;;;;;;;1.10;1.10;;;;;;;25.02;59.47;97446.84;5101942;28;20195;-21
2022/08/13 04:09:44;;;;;;;1.13;1.13;;;;;;;25.02;59.77;97449.41;5100101;28;20238;-21
2022/08/13 04:12:21;;;;;;;1.10;1.10;;;;;;;25.03;59.48;97453.72;5103610;28;20249;-21
2022/08/13 04:14:48;;;;;;;1.20;1.20;;;;;;;25.03;59.85;97455.44;5094027;28;20200;-21
2022/08/13 04:17:27;;;;;;;1.20;1.20;;;;;;;25.02;59.30;97458.84;5086855;28;20242;-21
2022/08/13 04:19:57;;;;;;;1.30;1.20;;;;;;;25.03;59.47;97452.84;5091745;28;20199;-21
2022/08/13 04:22:27;;;;;;;1.40;1.30;;;;;;;25.02;59.81;97457.13;5086291;28;20203;-21
2022/08/13 04:24:54;;;;;;;1.10;1.10;;;;;;;25.00;59.66;97457.94;5091612;28;20296;-21
2022/08/13 04:27:20;;;;;;;1.10;1.10;;;;;;;25.00;59.32;97456.25;5094930;28;20231;-21
2022/08/13 04:29:51;;;;;;;1.20;1.20;;;;;;;25.02;59.55;97459.69;5087379;28;20199;-21
2022/08/13 04:32:23;;;;;;;1.50;1.40;;;;;;;25.02;59.45;97451.13;5087342;28;20200;-20
2022/08/13 04:35:00;;;;;;;1.10;1.10;;;;;;;25.02;59.49;97451.13;5090718;28;21028;-21
2022/08/13 04:37:40;;;;;;;1.10;1.10;;;;;;;25.01;59.43;97454.53;5084516;28;20219;-21
2022/08/13 04:40:20;;;;;;;1.23;1.23;;;;;;;25.01;59.75;97450.25;5096793;28;20187;-21
2022/08/13 04:42:56;;;;;;;1.10;1.10;;;;;;;25.02;59.34;97451.13;5093317;28;20196;-21
2022/08/13 04:45:25;;;;;;;1.40;1.30;;;;;;;25.02;59.73;97461.41;5097038;28;20297;-21
2022/08/13 04:47:53;;;;;;;1.10;1.10;;;;;;;25.03;59.50;97465.72;5099419;28;20223;-21
2022/08/13 04:50:21;;;;;;;1.20;1.20;;;;;;;25.02;59.49;97461.41;5098887;28;20227;-21
2022/08/13 04:52:49;;;;;;;1.10;1.10;;;;;;;25.01;59.92;97457.97;5101542;28;20619;-21
2022/08/13 04:55:15;;;;;;;1.10;1.10;;;;;;;25.03;59.50;97470.84;5073986;28;20710;-21
2022/08/13 04:57:42;;;;;;;1.20;1.20;;;;;;;25.01;60.01;97470.84;5095089;28;20310;-21
2022/08/13 05:00:24;;;;;;;1.20;1.20;;;;;;;25.03;59.60;97465.72;5101795;28;20191;-21
2022/08/13 05:02:54;;;;;;;1.10;1.10;;;;;;;25.02;59.58;97464.00;5098466;28;20199;-21
2022/08/13 05:05:24;;;;;;;1.10;1.10;;;;;;;25.02;59.50;97464.84;5099160;28;20203;-21
2022/08/13 05:07:52;;;;;;;1.10;1.10;;;;;;;25.02;59.53;97461.41;5111883;28;20323;-21
2022/08/13 05:10:19;;;;;;;1.20;1.20;;;;;;;25.03;59.85;97461.44;5100095;28;20667;-21
2022/08/13 05:12:58;;;;;;;1.40;1.30;;;;;;;25.02;59.88;97461.41;5103261;28;20202;-21
2022/08/13 05:15:28;;;;;;;1.10;1.10;;;;;;;25.02;59.89;97469.97;5103534;28;20227;-23
2022/08/13 05:18:14;;;;;;;1.27;1.20;;;;;;;25.01;59.61;97457.97;5088445;28;20306;-21
2022/08/13 05:20:56;;;;;;;1.40;1.30;;;;;;;25.01;59.87;97454.53;5097955;28;20200;-21
2022/08/13 05:23:24;;;;;;;1.10;1.10;;;;;;;25.00;59.59;97456.25;5108013;28;20631;-20
2022/08/13 05:26:10;;;;;;;1.20;1.20;;;;;;;25.01;59.53;97457.97;5091389;28;20221;-23
2022/08/13 05:29:04;;;;;;;1.17;1.17;;;;;;;25.01;59.88;97457.09;5095609;28;20249;-21
2022/08/13 05:31:32;;;;;;;1.30;1.30;;;;;;;25.01;59.96;97460.53;5094501;28;20311;-21
2022/08/13 05:34:03;;;;;;;1.27;1.27;;;;;;;25.01;59.53;97459.66;5089778;28;20209;-21
2022/08/13 05:36:31;;;;;;;1.30;1.20;;;;;;;25.02;59.53;97464.84;5103710;28;20624;-21
2022/08/13 05:39:18;;;;;;;1.20;1.20;;;;;;;25.02;59.73;97461.41;5088093;28;20223;-23
2022/08/13 05:41:47;;;;;;;1.40;1.30;;;;;;;25.01;59.35;97459.66;5100068;28;20257;-21
2022/08/13 05:44:34;;;;;;;1.20;1.20;;;;;;;25.02;59.74;97459.69;5090111;28;20456;-23
2022/08/13 05:47:05;;;;;;;1.40;1.30;;;;;;;25.02;59.46;97466.56;5111928;28;20645;-22
2022/08/13 05:49:33;;;;;;;1.10;1.10;;;;;;;25.02;59.74;97458.84;5094365;28;20283;-21
2022/08/13 05:52:20;;;;;;;1.20;1.20;;;;;;;25.02;59.45;97466.56;5096077;28;20222;-21
2022/08/13 05:55:11;;;;;;;1.53;1.43;;;;;;;25.02;59.82;97466.56;5093562;28;20196;-21
2022/08/13 05:57:58;;;;;;;1.10;1.10;;;;;;;25.03;59.85;97468.28;5103453;28;20223;-21
2022/08/13 06:03:25;;;;;;;1.20;1.20;;;;;;;25.02;59.93;97466.56;5093884;28;20231;-21
2022/08/13 06:06:16;;;;;;;1.10;1.10;;;;;;;25.01;59.89;97465.69;5101609;28;20198;-21
2022/08/13 06:08:50;;;;;;;1.20;1.20;;;;;;;25.01;59.87;97464.81;5092755;28;20227;-21
2022/08/13 06:11:17;;;;;;;1.03;1.03;;;;;;;25.00;59.98;97469.13;5100794;28;20630;-21
2022/08/13 06:14:03;;;;;;;1.27;1.27;;;;;;;25.00;59.76;97466.53;5096645;28;20210;-21
2022/08/13 06:16:32;;;;;;;1.10;1.10;;;;;;;25.01;59.86;97470.84;5106233;28;20289;-21
2022/08/13 06:19:23;;;;;;;1.40;1.30;;;;;;;25.01;59.61;97473.41;5101573;28;20219;-22
2022/08/13 06:22:02;;;;;;;1.40;1.30;;;;;;;25.00;59.94;97476.81;5101685;28;20608;-22
2022/08/13 06:24:32;;;;;;;1.30;1.20;;;;;;;25.02;59.45;97484.56;5093073;28;20203;-21
2022/08/13 06:27:04;;;;;;;1.10;1.10;;;;;;;25.01;59.49;97486.25;5100972;28;20645;-21
2022/08/13 06:29:40;;;;;;;1.93;1.20;;;;;;;25.02;59.65;97487.13;5093183;28;20670;-21
2022/08/13 06:32:16;;;;;;;1.20;1.20;;;;;;;25.02;59.72;97493.13;5082228;28;20219;-21
2022/08/13 06:35:05;;;;;;;1.10;1.10;;;;;;;25.02;59.92;97494.84;5109521;28;20203;-20
2022/08/13 06:37:37;;;;;;;1.20;1.20;;;;;;;25.01;59.45;97495.66;5099149;27;20228;-21
2022/08/13 06:40:15;;;;;;;1.00;1.00;;;;;;;24.70;59.74;97450.66;5084890;28;20210;-21
2022/08/13 06:42:58;;;;;;;1.20;1.10;;;;;;;25.02;59.74;97497.41;5088500;28;20199;-21
2022/08/13 06:45:26;;;;;;;1.20;1.20;;;;;;;25.01;59.65;97491.41;5092359;28;20231;-21
2022/08/13 06:47:59;;;;;;;1.13;1.13;;;;;;;25.01;59.71;97493.09;5081849;28;20215;-21
2022/08/13 06:50:27;;;;;;;1.10;1.10;;;;;;;25.00;59.49;97487.13;5092513;28;20217;-21
2022/08/13 06:52:56;;;;;;;1.20;1.20;;;;;;;25.00;59.54;97469.13;5102795;28;20572;-22
2022/08/13 06:55:42;;;;;;;1.10;1.10;;;;;;;24.83;59.63;97449.13;5083266;28;20209;-21
2022/08/13 06:58:30;;;;;;;1.27;1.20;;;;;;;25.01;59.71;97490.53;5085352;28;20230;-21
2022/08/13 07:00:59;;;;;;;1.30;1.20;;;;;;;24.92;59.83;97470.69;5094360;28;20234;-21
2022/08/13 07:03:30;;;;;;;1.20;1.20;;;;;;;25.01;59.79;97487.94;5086576;28;20290;-21
2022/08/13 07:06:40;;;;;;;1.20;1.20;;;;;;;25.01;59.80;97487.94;5109357;28;20210;-21
2022/08/13 07:09:07;;;;;;;1.00;1.00;;;;;;;25.01;59.42;97488.84;5043470;28;20243;-21
2022/08/13 07:11:36;;;;;;;1.10;1.10;;;;;;;25.02;59.92;97480.25;5070452;28;20765;-21
2022/08/13 07:14:06;;;;;;;1.30;1.20;;;;;;;25.02;59.66;97479.41;5081732;28;20585;-22
2022/08/13 07:16:38;;;;;;;1.10;1.10;;;;;;;24.77;59.67;97431.91;5092187;28;20211;-22
2022/08/13 07:19:05;;;;;;;1.10;1.10;;;;;;;25.01;59.55;97478.53;5085940;28;20253;-21
2022/08/13 07:21:32;;;;;;;1.20;1.20;;;;;;;25.02;59.81;97476.84;5086598;28;20221;-21
2022/08/13 07:24:09;;;;;;;1.40;1.30;;;;;;;25.01;59.88;97481.13;5091893;28;20207;-23
2022/08/13 07:26:59;;;;;;;1.30;1.30;;;;;;;24.73;59.81;97431.84;5085379;28;20669;-21
2022/08/13 07:29:27;;;;;;;1.40;1.30;;;;;;;25.01;59.55;97481.13;5085753;28;20311;-21
2022/08/13 07:31:55;;;;;;;1.20;1.20;;;;;;;25.01;59.49;97478.53;5090702;28;20514;-22
2022/08/13 07:34:32;;;;;;;1.20;1.20;;;;;;;24.99;59.40;97476.81;5092025;28;20202;-21
2022/08/13 07:37:00;;;;;;;1.20;1.10;;;;;;;25.00;59.59;97474.25;5091496;28;20203;-21
2022/08/13 07:39:30;;;;;;;1.30;1.30;;;;;;;24.99;59.91;97467.38;5098022;28;20230;-21
2022/08/13 07:42:15;;;;;;;1.30;1.20;;;;;;;25.00;59.79;97465.66;5096588;28;20188;-21
2022/08/13 07:44:48;;;;;;;1.20;1.20;;;;;;;24.98;59.62;97468.22;5092187;28;20204;-21
2022/08/13 07:47:35;;;;;;;1.10;1.10;;;;;;;25.00;59.52;97479.41;5103667;28;20222;-21
2022/08/13 07:50:22;;;;;;;1.10;1.10;;;;;;;25.02;60.00;97474.28;5104228;28;20194;-21
2022/08/13 07:52:55;;;;;;;1.10;1.10;;;;;;;25.01;59.59;97486.25;5103718;28;20251;-21
2022/08/13 07:55:25;;;;;;;1.03;1.03;;;;;;;25.01;59.91;97477.66;5081770;28;20250;-22
2022/08/13 07:58:12;;;;;;;1.13;1.13;;;;;;;25.01;59.98;97465.69;5091494;28;20234;-21
2022/08/13 08:00:46;;;;;;;1.40;1.30;;;;;;;25.01;59.67;97468.25;5106605;28;20213;-21
2022/08/13 08:03:12;;;;;;;1.40;1.30;;;;;;;24.92;59.78;97452.69;5095404;28;20196;-21
2022/08/13 08:05:40;;;;;;;1.10;1.10;;;;;;;25.02;59.69;97469.13;5083628;28;20585;-21
2022/08/13 08:08:10;;;;;;;1.10;1.10;;;;;;;25.01;59.59;97463.13;5089949;28;20672;-21
2022/08/13 08:10:54;;;;;;;1.20;1.20;;;;;;;25.02;59.71;97471.72;5093089;28;20219;-21
2022/08/13 08:13:22;;;;;;;1.20;1.20;;;;;;;24.92;59.47;97451.81;5103133;28;20231;-21
2022/08/13 08:15:48;;;;;;;1.20;1.20;;;;;;;24.93;59.98;97457.00;5082617;28;20733;-21
2022/08/13 08:18:32;;;;;;;1.30;1.20;;;;;;;25.01;60.04;97470.84;5088315;28;20222;-21
2022/08/13 08:21:19;;;;;;;1.30;1.30;;;;;;;25.01;59.49;97477.66;5090043;28;20197;-22
2022/08/13 08:24:06;;;;;;;1.10;1.10;;;;;;;24.98;60.01;97463.06;5095399;28;20201;-21
2022/08/13 08:26:55;;;;;;;1.00;1.00;;;;;;;25.00;59.15;97469.13;5108904;28;20202;-21
2022/08/13 08:29:22;;;;;;;1.10;1.10;;;;;;;24.99;59.78;97472.50;5104774;28;20216;-21
2022/08/13 08:31:50;;;;;;;1.20;1.20;;;;;;;25.00;60.05;97468.22;5107022;27;20576;-21
2022/08/13 08:34:29;;;;;;;1.10;1.10;;;;;;;25.00;59.74;97471.69;5090344;28;20206;-20
2022/08/13 08:36:56;;;;;;;1.20;1.20;;;;;;;25.00;59.65;97476.81;5097158;28;20286;-21
2022/08/13 08:42:54;;;;;;;1.20;1.20;;;;;;;25.01;59.64;97467.38;5095019;28;20223;-21
2022/08/13 08:45:03;;;;;;;1.10;1.10;;;;;;;25.01;59.49;97463.13;5098260;28;20282;-21
2022/08/13 08:47:38;;;;;;;1.30;1.20;;;;;;;25.01;59.86;97463.13;5093348;28;20302;-21
2022/08/13 08:50:22;;;;;;;1.00;1.00;;;;;;;25.00;59.63;97466.53;5092511;28;20257;-21
2022/08/13 08:56:01;;;;;;;1.37;1.30;;;;;;;25.01;59.80;97462.25;5105752;28;20206;-21
2022/08/13 08:58:34;;;;;;;1.10;1.10;;;;;;;25.01;59.49;97460.53;5094722;28;20219;-21
2022/08/13 09:01:04;;;;;;;1.20;1.20;;;;;;;25.00;59.55;97461.41;5086104;28;20205;-21
2022/08/13 09:03:36;;;;;;;1.17;1.17;;;;;;;25.00;59.65;97463.09;5083647;28;20256;-21
2022/08/13 09:06:23;;;;;;;1.20;1.20;;;;;;;25.02;59.59;97458.84;5090198;28;20332;-21
2022/08/13 09:09:11;;;;;;;1.10;1.10;;;;;;;25.00;59.72;97456.25;5114629;22;20239;-30
2022/08/13 09:11:43;;;;;;;1.00;1.00;;;;;;;24.95;59.94;97444.16;5096949;28;20257;-30
2022/08/13 09:14:20;;;;;;;1.20;1.20;;;;;;;24.96;59.67;97449.31;5072058;28;20650;-31
2022/08/13 09:16:48;;;;;;;1.33;1.23;;;;;;;24.99;59.40;97451.94;5074239;28;20300;-31
2022/08/13 09:19:16;;;;;;;1.30;1.20;;;;;;;24.97;59.66;97450.19;5088653;28;20214;-30
2022/08/13 09:22:03;;;;;;;1.20;1.20;;;;;;;25.00;60.00;97458.81;5096632;28;20338;-30
2022/08/13 09:24:29;;;;;;;1.27;1.20;;;;;;;25.00;59.67;97451.13;5100375;28;20242;-31
2022/08/13 09:26:56;;;;;;;1.10;1.10;;;;;;;25.00;59.76;97453.69;5097555;28;20231;-31
2022/08/13 09:29:25;;;;;;;1.10;1.10;;;;;;;25.00;59.89;97453.69;5095500;28;20311;-31
2022/08/13 09:31:55;;;;;;;1.10;1.10;;;;;;;25.01;59.53;97459.66;5096022;28;20220;-31
2022/08/13 09:34:21;;;;;;;1.07;1.07;;;;;;;25.01;59.70;97451.97;5102063;28;20207;-31
2022/08/13 09:36:50;;;;;;;1.10;1.10;;;;;;;25.01;59.65;97446.81;5099233;28;20611;-31
2022/08/13 09:39:24;;;;;;;1.20;1.20;;;;;;;25.01;59.54;97444.25;5074440;28;20220;-31
2022/08/13 09:41:57;;;;;;;1.20;1.20;;;;;;;25.01;59.57;97439.97;5095086;28;20192;-31
2022/08/13 09:44:25;;;;;;;1.00;1.00;;;;;;;24.98;59.92;97436.47;5095837;28;20196;-31
2022/08/13 09:46:52;;;;;;;1.17;1.17;;;;;;;25.01;60.02;97445.13;5077880;28;20291;-31
2022/08/13 09:49:20;;;;;;;1.10;1.10;;;;;;;24.95;59.96;97429.59;5100087;28;20247;-31
2022/08/13 09:52:06;;;;;;;1.07;1.07;;;;;;;24.98;59.81;97432.22;5100069;27;20231;-31
2022/08/13 09:54:44;;;;;;;1.20;1.20;;;;;;;25.01;59.75;97436.53;5111128;28;20207;-31
2022/08/13 09:57:20;;;;;;;1.00;1.00;;;;;;;25.00;59.62;97447.66;5089197;28;20286;-31
2022/08/13 09:59:48;;;;;;;1.20;1.20;;;;;;;24.99;59.60;97428.78;5096240;28;20671;-31
2022/08/13 10:02:23;;;;;;;1.07;1.07;;;;;;;25.00;59.96;97438.25;5089839;28;20654;-31
2022/08/13 10:04:52;;;;;;;1.30;1.20;;;;;;;24.99;59.54;97439.06;5099344;28;20287;-31
2022/08/13 10:07:19;;;;;;;1.10;1.10;;;;;;;25.00;59.76;97435.69;5099740;28;20245;-30
2022/08/13 10:09:48;;;;;;;1.00;1.00;;;;;;;24.99;59.79;97441.66;5095376;28;20228;-31
2022/08/13 10:12:35;;;;;;;1.10;1.10;;;;;;;25.01;59.70;97426.25;5094380;28;20747;-31
2022/08/13 10:15:01;;;;;;;1.03;1.03;;;;;;;24.98;60.02;97424.50;5103589;28;20669;-31
2022/08/13 10:17:44;;;;;;;1.10;1.10;;;;;;;24.98;59.74;97415.91;5095074;28;20238;-30
2022/08/13 10:20:21;;;;;;;1.13;1.13;;;;;;;25.01;59.79;97427.13;5099157;28;20234;-31
2022/08/13 10:22:48;;;;;;;1.10;1.10;;;;;;;25.01;59.66;97427.13;5109162;28;20347;-31
2022/08/13 10:25:19;;;;;;;1.20;1.20;;;;;;;25.02;59.79;97428.00;5103102;28;20249;-31
2022/08/13 10:27:46;;;;;;;1.17;1.17;;;;;;;25.01;60.01;97424.53;5103901;28;20239;-31
2022/08/13 10:30:22;;;;;;;1.10;1.10;;;;;;;25.01;59.67;97427.13;5104216;28;20714;-31
2022/08/13 10:33:08;;;;;;;1.13;1.10;;;;;;;25.02;59.71;97425.41;5086792;28;20230;-31
2022/08/13 10:35:36;;;;;;;1.00;1.00;;;;;;;24.95;60.10;97410.72;5098311;28;20329;-31
2022/08/13 10:38:13;;;;;;;1.10;1.10;;;;;;;25.01;59.74;97423.66;5098755;28;20559;-31
2022/08/13 10:40:40;;;;;;;1.00;1.00;;;;;;;25.00;59.65;97419.38;5111211;28;20264;-31
2022/08/13 10:43:11;;;;;;;1.20;1.20;;;;;;;25.00;59.91;97411.66;5106344;28;20240;-31
2022/08/13 10:45:50;;;;;;;1.10;1.10;;;;;;;25.00;59.56;97414.25;5101838;28;20207;-31
2022/08/13 10:48:17;;;;;;;1.10;1.10;;;;;;;24.99;59.73;97397.94;5094110;28;20243;-30
2022/08/13 10:50:45;;;;;;;1.10;1.10;;;;;;;24.99;59.68;97405.66;5094371;28;20231;-31
2022/08/13 10:53:55;;;;;;;1.10;1.10;;;;;;;25.00;59.71;97398.81;5095451;28;20260;-31
2022/08/13 10:56:09;;;;;;;1.00;1.00;;;;;;;25.00;60.08;97396.25;5096791;28;20196;-31
2022/08/13 10:58:40;;;;;;;1.20;1.20;;;;;;;24.99;60.15;97390.22;5096879;28;20282;-31
2022/08/13 11:01:16;;;;;;;1.33;1.20;;;;;;;25.01;60.02;97397.97;5088708;28;20207;-30
2022/08/13 11:03:44;;;;;;;1.20;1.20;;;;;;;25.00;60.03;97389.41;5094251;28;20203;-31
2022/08/13 11:06:14;;;;;;;1.30;1.20;;;;;;;25.00;59.63;97391.97;5097680;28;20207;-31
2022/08/13 11:08:42;;;;;;;1.20;1.20;;;;;;;24.98;59.83;97385.06;5101856;28;20230;-31
2022/08/13 11:11:10;;;;;;;1.10;1.10;;;;;;;25.00;59.70;97384.25;5098551;28;20230;-31
2022/08/13 11:13:56;;;;;;;1.00;1.00;;;;;;;25.00;59.89;97381.69;5108117;28;20224;-31
2022/08/13 11:19:11;;;;;;;1.20;1.20;;;;;;;25.00;59.73;97384.25;5097663;27;20258;-30
2022/08/13 11:21:38;;;;;;;1.10;1.10;;;;;;;25.01;59.98;97379.97;5094440;28;20202;-31
2022/08/13 11:24:25;;;;;;;1.10;1.10;;;;;;;25.00;59.82;97380.81;5093725;28;20207;-31
2022/08/13 11:27:03;;;;;;;1.10;1.10;;;;;;;25.00;59.62;97381.69;5094213;28;20188;-31
2022/08/13 11:29:34;;;;;;;1.10;1.10;;;;;;;25.00;59.47;97381.69;5093424;28;20230;-31
2022/08/13 11:32:10;;;;;;;1.10;1.10;;;;;;;24.99;59.89;97382.50;5102194;28;20211;-31
2022/08/13 11:34:37;;;;;;;1.20;1.20;;;;;;;24.99;60.01;97379.94;5105003;28;20219;-31
2022/08/13 11:37:04;;;;;;;1.07;1.07;;;;;;;24.99;59.73;97379.94;5106719;28;20219;-31
2022/08/13 11:39:38;;;;;;;1.00;1.00;;;;;;;25.00;59.94;97381.69;5108221;28;20211;-30
2022/08/13 11:42:24;;;;;;;1.20;1.20;;;;;;;25.00;59.97;97380.81;5088625;28;20206;-31
2022/08/13 11:44:51;;;;;;;1.20;1.20;;;;;;;25.00;59.87;97375.66;5108447;28;20225;-31
2022/08/13 11:47:18;;;;;;;1.30;1.30;;;;;;;24.96;59.86;97364.47;5102566;28;20202;-31
2022/08/13 11:49:57;;;;;;;1.30;1.30;;;;;;;25.00;60.01;97363.69;5099792;28;20649;-31
2022/08/13 11:52:24;;;;;;;1.20;1.20;;;;;;;25.01;59.71;97367.09;5093446;28;20242;-31
2022/08/13 11:54:54;;;;;;;1.30;1.30;;;;;;;24.94;60.05;97360.16;5094916;28;20221;-31
2022/08/13 11:57:21;;;;;;;1.20;1.20;;;;;;;25.00;59.64;97367.97;5093410;28;20195;-31
2022/08/13 11:59:47;;;;;;;1.03;1.03;;;;;;;25.01;59.89;97356.81;5095318;28;20258;-30
2022/08/13 12:02:23;;;;;;;1.10;1.10;;;;;;;25.00;60.25;97362.81;5092978;28;20210;-31
2022/08/13 12:04:58;;;;;;;1.20;1.20;;;;;;;25.00;59.59;97355.97;5095317;28;20278;-31
2022/08/13 12:07:25;;;;;;;1.00;1.00;;;;;;;24.97;59.87;97344.78;5094796;28;20200;-31
2022/08/13 12:09:53;;;;;;;1.40;1.30;;;;;;;24.94;60.02;97347.31;5101081;28;20606;-31
2022/08/13 12:12:23;;;;;;;1.13;1.10;;;;;;;24.97;59.92;97340.50;5092311;28;20255;-31
2022/08/13 12:14:55;;;;;;;1.20;1.20;;;;;;;25.00;59.62;97343.13;5104045;28;20545;-31
2022/08/13 12:17:21;;;;;;;1.10;1.10;;;;;;;24.91;59.88;97327.56;5097299;28;20206;-31
2022/08/13 12:20:14;;;;;;;1.20;1.20;;;;;;;25.00;59.84;97342.25;5085815;28;20202;-31
2022/08/13 12:22:50;;;;;;;1.10;1.10;;;;;;;25.00;60.00;97350.84;5094321;28;20191;-31
2022/08/13 12:25:26;;;;;;;1.00;1.00;;;;;;;24.99;59.66;97346.50;5101112;28;20637;-30
2022/08/13 12:28:18;;;;;;;1.30;1.20;;;;;;;25.00;59.99;97339.69;5086489;28;20241;-32